Time;durP1;ratioP1;P1;durP2;ratioP2;P2;SDS_P1;SDS_P2;PMS_P1;PMS_P2;Temp;Humidity;BMP_temperature;BMP_pressure;BME280_temperature;BME280_humidity;BME280_pressure;Samples;Min_cycle;Max_cycle;Signal;HPM_P1;HPM_P2
2021/07/15 00:00:37;;;;;;;5.67;5.20;;;21.50;99.90;;;;;;6128863;23;20417;-45
2021/07/15 00:03:08;;;;;;;4.63;4.23;;;21.50;99.90;;;;;;6128491;23;20410;-43
2021/07/15 00:05:36;;;;;;;6.73;4.80;;;21.40;99.90;;;;;;6128473;23;20414;-45
2021/07/15 00:08:04;;;;;;;5.70;4.50;;;21.30;99.90;;;;;;6128364;23;20465;-46
2021/07/15 00:10:36;;;;;;;5.60;5.10;;;21.30;99.90;;;;;;6128872;23;20697;-43
2021/07/15 00:13:04;;;;;;;5.77;5.27;;;21.30;99.90;;;;;;6128604;23;20371;-44
2021/07/15 00:15:33;;;;;;;5.73;5.20;;;21.20;99.90;;;;;;6128728;23;20877;-47
2021/07/15 00:18:01;;;;;;;5.30;4.80;;;21.20;99.90;;;;;;6128042;23;20509;-46
2021/07/15 00:20:28;;;;;;;6.73;5.80;;;21.20;99.90;;;;;;6128690;23;20406;-50
2021/07/15 00:22:56;;;;;;;5.07;4.60;;;21.10;99.90;;;;;;6128659;23;20410;-43
2021/07/15 00:25:23;;;;;;;6.60;4.83;;;21.10;99.90;;;;;;6128285;23;20429;-47
2021/07/15 00:27:51;;;;;;;6.83;5.67;;;21.10;99.90;;;;;;6128088;23;20442;-45
2021/07/15 00:30:18;;;;;;;6.17;4.80;;;21.00;99.90;;;;;;6128588;23;20407;-49
2021/07/15 00:32:45;;;;;;;6.07;4.90;;;21.00;99.90;;;;;;6128646;23;20407;-45
2021/07/15 00:35:13;;;;;;;10.03;5.00;;;21.00;99.90;;;;;;6128240;23;20425;-43
2021/07/15 00:40:21;;;;;;;5.73;4.33;;;20.90;99.90;;;;;;6159309;23;20487;-42
2021/07/15 00:42:48;;;;;;;6.50;4.97;;;20.90;99.90;;;;;;6190513;23;20479;-43
2021/07/15 00:45:18;;;;;;;7.40;5.00;;;20.90;99.90;;;;;;6187900;23;20404;-41
2021/07/15 00:47:45;;;;;;;5.07;4.67;;;20.90;99.90;;;;;;6133610;23;20465;-49
2021/07/15 00:50:15;;;;;;;5.30;4.67;;;20.80;99.90;;;;;;6159643;23;20429;-48
2021/07/15 00:52:42;;;;;;;6.17;5.57;;;20.70;99.90;;;;;;6157807;23;20398;-46
2021/07/15 00:55:17;;;;;;;4.87;4.43;;;20.70;99.90;;;;;;6157802;23;20409;-47
2021/07/15 07:50:58;;;;;;;;;;;;;;;;;;;;;
2021/07/15 07:53:25;;;;;;;1.90;1.50;;;34.60;71.50;;;;;;6168540;23;20421;-45
2021/07/15 07:55:52;;;;;;;2.30;2.10;;;34.40;67.60;;;;;;6158761;23;20428;-43
2021/07/15 07:58:19;;;;;;;3.47;2.00;;;33.40;68.00;;;;;;6157232;23;20505;-47
2021/07/15 08:37:15;;;;;;;2.40;2.20;;;28.20;97.70;;;;;;6129789;23;20396;-44
2021/07/15 08:39:41;;;;;;;4.53;2.20;;;28.30;97.80;;;;;;6140186;23;20818;-43
2021/07/15 08:42:09;;;;;;;2.40;2.10;;;28.30;97.70;;;;;;6147069;23;20409;-47
2021/07/15 08:44:38;;;;;;;2.87;2.23;;;28.30;97.70;;;;;;6154918;23;20403;-51
2021/07/15 08:47:05;;;;;;;2.40;2.20;;;28.20;97.50;;;;;;6154717;23;20395;-51
2021/07/15 08:49:32;;;;;;;1.97;1.80;;;28.10;97.50;;;;;;6154404;23;20414;-51
2021/07/15 08:51:59;;;;;;;2.60;2.20;;;28.70;97.60;;;;;;6154760;23;20465;-50
2021/07/15 08:54:36;;;;;;;3.13;2.67;;;29.50;95.50;;;;;;6150362;23;21017;-46
2021/07/15 08:57:03;;;;;;;2.67;2.47;;;29.60;93.80;;;;;;6129316;23;20399;-49
2021/07/15 08:59:30;;;;;;;2.17;1.97;;;29.40;93.90;;;;;;6129659;23;20414;-51
2021/07/15 09:01:57;;;;;;;3.63;2.27;;;29.30;93.30;;;;;;6129424;23;20845;-45
2021/07/15 09:04:23;;;;;;;2.50;2.00;;;29.20;93.70;;;;;;6128173;23;20411;-45
2021/07/15 09:06:51;;;;;;;2.30;2.10;;;28.90;93.50;;;;;;6129176;23;20899;-42
2021/07/15 09:09:18;;;;;;;2.10;1.90;;;28.70;94.40;;;;;;6128611;23;20442;-44
2021/07/15 09:11:46;;;;;;;2.27;1.90;;;28.80;95.00;;;;;;6129151;23;20418;-45
2021/07/15 09:14:15;;;;;;;2.20;2.00;;;29.10;95.00;;;;;;6128931;23;20919;-48
2021/07/15 09:16:50;;;;;;;2.37;2.17;;;29.00;94.50;;;;;;6128878;23;20411;-47
2021/07/15 09:19:18;;;;;;;2.80;2.50;;;29.00;94.30;;;;;;6129065;23;20412;-45
2021/07/15 09:21:45;;;;;;;2.50;2.30;;;29.10;94.70;;;;;;6128193;23;20866;-41
2021/07/15 09:24:30;;;;;;;4.07;2.80;;;29.10;94.50;;;;;;6127994;23;20446;-44
2021/07/15 09:26:59;;;;;;;6.10;2.90;;;29.20;94.80;;;;;;6127884;23;20406;-42
2021/07/15 09:29:26;;;;;;;2.27;2.07;;;29.40;94.20;;;;;;6127815;23;20442;-44
2021/07/15 09:31:55;;;;;;;3.00;2.03;;;30.00;93.40;;;;;;6128582;23;20415;-45
2021/07/15 09:34:22;;;;;;;5.00;2.10;;;31.10;91.30;;;;;;6128681;23;20415;-49
2021/07/15 09:36:50;;;;;;;3.00;2.70;;;31.60;88.80;;;;;;6137999;23;20559;-44
2021/07/15 15:00:11;;;;;;;5.40;4.43;;;26.00;99.90;;;;;;6111262;23;20418;-51
2021/07/15 15:02:39;;;;;;;9.47;4.77;;;25.80;99.90;;;;;;6142052;23;20536;-43
2021/07/15 15:05:07;;;;;;;4.63;4.20;;;25.80;99.90;;;;;;6150008;23;20399;-46
2021/07/15 15:07:34;;;;;;;6.27;5.10;;;25.60;99.90;;;;;;6153219;23;20399;-47
2021/07/15 15:10:01;;;;;;;8.20;5.30;;;25.50;99.90;;;;;;6153127;23;20446;-42
2021/07/15 15:12:27;;;;;;;6.97;4.57;;;25.50;99.90;;;;;;6153391;23;20403;-42
2021/07/15 15:14:57;;;;;;;5.17;4.70;;;25.40;99.90;;;;;;6154993;23;20486;-45
2021/07/15 15:17:25;;;;;;;4.60;4.20;;;25.40;99.90;;;;;;6154454;23;20438;-46
2021/07/15 15:19:52;;;;;;;8.00;4.57;;;25.30;99.90;;;;;;6154784;23;20402;-44
2021/07/15 15:22:18;;;;;;;5.37;4.83;;;25.30;99.90;;;;;;6154866;23;20560;-43
2021/07/15 15:24:45;;;;;;;4.60;4.20;;;25.30;99.90;;;;;;6154915;23;20435;-45
2021/07/15 15:27:12;;;;;;;4.33;3.93;;;25.20;99.90;;;;;;6154928;23;20399;-44
2021/07/15 15:29:38;;;;;;;5.27;4.77;;;25.20;99.90;;;;;;6154971;23;20442;-41
2021/07/15 15:32:06;;;;;;;7.30;4.30;;;25.20;99.90;;;;;;6154649;23;20399;-46
2021/07/15 15:34:35;;;;;;;4.67;4.23;;;25.10;99.90;;;;;;6154686;23;20394;-41
2021/07/15 15:37:02;;;;;;;5.40;4.23;;;25.20;99.90;;;;;;6137955;23;20407;-44
2021/07/15 15:39:29;;;;;;;4.40;4.00;;;25.30;99.90;;;;;;6127575;23;20398;-49
2021/07/15 15:41:56;;;;;;;4.20;3.80;;;25.50;99.90;;;;;;6128736;23;20417;-49
2021/07/15 15:44:22;;;;;;;4.80;3.93;;;25.70;99.90;;;;;;6128271;23;20466;-50
2021/07/15 15:47:04;;;;;;;5.07;4.10;;;25.80;99.90;;;;;;6129260;23;20413;-48
2021/07/15 15:49:31;;;;;;;3.83;3.53;;;26.00;99.90;;;;;;6129172;23;20520;-44
2021/07/15 15:51:59;;;;;;;4.30;3.50;;;26.20;99.90;;;;;;6129237;23;20407;-46
2021/07/15 15:54:26;;;;;;;4.03;3.63;;;26.20;99.90;;;;;;6128823;23;20881;-52
2021/07/15 15:56:53;;;;;;;4.63;4.20;;;26.40;99.90;;;;;;6129194;23;20403;-43
2021/07/15 15:59:20;;;;;;;5.73;3.50;;;26.50;99.90;;;;;;6128810;23;20713;-43
2021/07/15 16:01:46;;;;;;;4.20;3.80;;;26.50;99.90;;;;;;6129235;23;20426;-44
2021/07/15 16:04:13;;;;;;;5.27;3.77;;;26.60;99.90;;;;;;6129110;23;20438;-45
2021/07/15 16:06:40;;;;;;;6.90;4.10;;;26.70;99.90;;;;;;6129337;23;20477;-44
2021/07/15 16:09:08;;;;;;;4.87;3.60;;;26.80;99.90;;;;;;6128439;23;20438;-47
2021/07/15 16:11:37;;;;;;;5.07;3.80;;;26.80;99.90;;;;;;6128872;23;20406;-43
2021/07/15 16:14:04;;;;;;;3.70;3.10;;;26.90;99.90;;;;;;6128693;23;20425;-46
2021/07/15 16:16:30;;;;;;;4.87;4.13;;;26.90;99.90;;;;;;6128677;23;20890;-46
2021/07/15 16:18:57;;;;;;;6.07;4.10;;;27.00;99.90;;;;;;6128746;23;20402;-46
2021/07/15 16:21:24;;;;;;;4.03;3.50;;;27.00;99.90;;;;;;6128327;23;20407;-46
2021/07/15 16:23:51;;;;;;;3.27;2.97;;;27.10;99.90;;;;;;6128591;23;20415;-44
2021/07/15 16:26:19;;;;;;;3.60;3.30;;;27.10;99.90;;;;;;6128526;23;20713;-48
2021/07/15 16:28:46;;;;;;;4.60;2.70;;;27.10;99.90;;;;;;6128459;23;20461;-53
2021/07/15 16:31:14;;;;;;;3.53;3.23;;;27.10;99.90;;;;;;6127479;23;20453;-45
2021/07/15 16:33:43;;;;;;;3.63;3.33;;;27.00;99.90;;;;;;6130586;23;20429;-48
2021/07/15 16:36:10;;;;;;;3.33;3.03;;;27.00;99.90;;;;;;6129786;23;20541;-43
2021/07/15 16:38:37;;;;;;;4.37;3.97;;;26.90;99.90;;;;;;6132729;23;20713;-48
2021/07/15 16:41:04;;;;;;;3.70;2.83;;;26.90;99.90;;;;;;6134091;23;20466;-48
2021/07/15 16:43:33;;;;;;;3.57;3.07;;;26.90;99.90;;;;;;6133606;23;20742;-44
2021/07/15 16:46:01;;;;;;;6.07;3.30;;;26.90;99.90;;;;;;6131888;23;20416;-46
2021/07/15 16:48:28;;;;;;;3.07;2.73;;;27.00;99.90;;;;;;6130842;23;20940;-47
2021/07/15 16:50:55;;;;;;;3.03;2.83;;;27.00;99.90;;;;;;6129557;23;20754;-48
2021/07/15 16:53:22;;;;;;;3.47;3.20;;;27.00;99.90;;;;;;6128315;23;20447;-45
2021/07/15 16:55:49;;;;;;;5.20;4.27;;;27.00;99.90;;;;;;6128668;23;20410;-43
2021/07/15 16:58:15;;;;;;;3.57;3.23;;;26.90;99.90;;;;;;6131045;23;20415;-45
2021/07/15 17:03:19;;;;;;;4.10;3.30;;;27.00;99.90;;;;;;6155274;23;20448;-47
2021/07/15 17:05:58;;;;;;;4.87;3.40;;;27.10;99.90;;;;;;6133280;23;20486;-49
2021/07/15 17:08:25;;;;;;;3.03;2.77;;;27.10;99.90;;;;;;6128822;23;20928;-43
2021/07/15 17:16:02;;;;;;;3.50;3.10;;;27.00;99.90;;;;;;6170135;23;20464;-44
2021/07/15 17:18:30;;;;;;;3.03;2.80;;;27.00;99.90;;;;;;6198987;23;20427;-46
2021/07/15 17:20:57;;;;;;;3.37;3.07;;;27.00;99.90;;;;;;6187462;23;20748;-47
2021/07/15 17:23:24;;;;;;;4.33;3.13;;;27.00;99.90;;;;;;6206005;23;20416;-46
2021/07/15 17:25:51;;;;;;;3.40;3.10;;;27.00;99.90;;;;;;6188084;23;20412;-45
2021/07/15 17:28:17;;;;;;;4.83;3.40;;;26.90;99.90;;;;;;6187575;23;20408;-45
2021/07/15 17:30:45;;;;;;;3.63;2.73;;;26.90;99.90;;;;;;6186927;23;20409;-44
2021/07/15 17:33:12;;;;;;;3.90;3.33;;;26.80;99.90;;;;;;6187307;23;20417;-49
2021/07/15 17:35:40;;;;;;;3.90;3.03;;;26.80;99.90;;;;;;6187093;23;20483;-44
2021/07/15 17:38:07;;;;;;;4.60;3.20;;;26.80;99.90;;;;;;6186968;23;20405;-42
2021/07/15 17:40:34;;;;;;;4.73;3.37;;;26.80;99.90;;;;;;6187465;23;20417;-48
2021/07/15 17:43:01;;;;;;;4.53;3.30;;;26.80;99.90;;;;;;6187239;23;20424;-45
2021/07/15 17:45:28;;;;;;;5.17;4.67;;;26.80;99.90;;;;;;6186804;23;20404;-46
2021/07/15 17:47:56;;;;;;;6.80;4.40;;;26.80;99.90;;;;;;6186927;23;20930;-48
2021/07/15 17:50:23;;;;;;;5.80;5.17;;;26.80;99.90;;;;;;6187047;23;20440;-42
2021/07/15 17:52:51;;;;;;;5.87;4.20;;;26.70;99.90;;;;;;6186744;23;20879;-49
2021/07/15 17:55:18;;;;;;;4.30;3.90;;;26.70;99.90;;;;;;6187125;23;20408;-44
2021/07/15 17:57:45;;;;;;;6.10;3.63;;;26.70;99.90;;;;;;6186542;23;20417;-49
2021/07/15 18:00:14;;;;;;;5.10;3.70;;;26.70;99.90;;;;;;6187101;23;20401;-48
2021/07/15 18:02:42;;;;;;;5.10;4.60;;;26.60;99.90;;;;;;6187043;23;20405;-51
2021/07/15 18:05:10;;;;;;;4.03;3.73;;;26.60;99.90;;;;;;6187050;23;20678;-51
2021/07/15 18:07:38;;;;;;;10.10;7.43;;;26.60;99.90;;;;;;6187067;23;20436;-44
2021/07/15 18:10:09;;;;;;;11.90;10.27;;;26.50;99.90;;;;;;6186831;23;20437;-44
2021/07/15 18:12:36;;;;;;;8.40;6.70;;;26.50;99.90;;;;;;6187136;23;20388;-46
2021/07/15 18:15:03;;;;;;;7.00;6.30;;;26.50;99.90;;;;;;6186693;23;20748;-45
2021/07/15 18:17:30;;;;;;;6.00;4.93;;;26.50;99.90;;;;;;6186942;23;20404;-45
2021/07/15 18:19:57;;;;;;;7.73;5.97;;;26.50;99.90;;;;;;6186494;23;20401;-45
2021/07/15 18:22:24;;;;;;;6.40;5.10;;;26.50;99.90;;;;;;6186566;23;20401;-48
2021/07/15 18:24:51;;;;;;;7.40;5.00;;;26.50;99.90;;;;;;6186926;23;20480;-45
2021/07/15 18:27:19;;;;;;;7.07;4.80;;;26.50;99.90;;;;;;6186450;23;20405;-50
2021/07/15 18:29:45;;;;;;;6.03;4.27;;;26.40;99.90;;;;;;6186333;23;20923;-47
2021/07/15 18:32:12;;;;;;;4.00;3.60;;;26.40;99.90;;;;;;6187155;23;20713;-45
2021/07/15 18:34:39;;;;;;;4.33;3.60;;;26.40;99.90;;;;;;6186788;23;20420;-49
2021/07/15 18:37:06;;;;;;;4.40;3.60;;;26.40;99.90;;;;;;6186810;23;20409;-44
2021/07/15 18:39:33;;;;;;;3.70;3.27;;;26.30;99.90;;;;;;6186348;23;20733;-51
2021/07/15 18:42:00;;;;;;;6.57;3.50;;;26.20;99.90;;;;;;6186930;23;20447;-46
2021/07/15 18:44:28;;;;;;;18.70;16.77;;;26.20;99.90;;;;;;6186635;23;20864;-44
2021/07/15 18:46:56;;;;;;;5.53;4.63;;;26.10;99.90;;;;;;6186474;23;20466;-47
2021/07/15 18:49:23;;;;;;;4.67;4.20;;;26.00;99.90;;;;;;6186363;23;20906;-45
2021/07/15 18:51:52;;;;;;;7.00;4.50;;;25.90;99.90;;;;;;6186345;23;20405;-46
2021/07/15 18:54:19;;;;;;;4.83;3.80;;;25.90;99.90;;;;;;6186669;23;20447;-48
2021/07/15 18:56:46;;;;;;;3.47;3.17;;;25.80;99.90;;;;;;6186268;23;20409;-46
2021/07/15 18:59:13;;;;;;;4.67;3.83;;;25.70;99.90;;;;;;6186694;23;20739;-42
2021/07/15 19:01:41;;;;;;;4.87;4.23;;;25.70;99.90;;;;;;6186238;23;20883;-44
2021/07/15 19:04:08;;;;;;;5.10;4.03;;;25.60;99.90;;;;;;6186308;23;20405;-45
2021/07/15 19:06:35;;;;;;;5.10;4.60;;;25.50;99.90;;;;;;6186410;23;20475;-46
2021/07/15 19:09:02;;;;;;;5.07;4.57;;;25.40;99.90;;;;;;6186091;23;20930;-43
2021/07/15 19:11:29;;;;;;;7.87;4.60;;;25.30;99.90;;;;;;6186579;23;20740;-47
2021/07/15 19:13:55;;;;;;;6.50;4.90;;;25.30;99.90;;;;;;6186308;23;20401;-46
2021/07/15 19:16:22;;;;;;;5.97;4.80;;;25.20;99.90;;;;;;6186003;23;20502;-46
2021/07/15 19:18:50;;;;;;;5.30;4.60;;;25.10;99.90;;;;;;6186217;23;20412;-44
2021/07/15 19:21:17;;;;;;;9.90;5.00;;;25.10;99.90;;;;;;6186293;23;20405;-49
2021/07/15 19:23:43;;;;;;;8.77;5.37;;;25.00;99.90;;;;;;6186647;23;20404;-49
2021/07/15 19:26:10;;;;;;;5.83;4.93;;;25.00;99.90;;;;;;6186229;23;20459;-45
2021/07/15 19:28:37;;;;;;;4.93;4.13;;;24.90;99.90;;;;;;6186543;23;20409;-44
2021/07/15 19:31:08;;;;;;;13.70;6.20;;;24.90;99.90;;;;;;6186037;23;20498;-46
2021/07/15 19:33:36;;;;;;;7.73;6.00;;;24.80;99.90;;;;;;6186590;23;20444;-45
2021/07/15 19:36:04;;;;;;;9.10;6.23;;;24.80;99.90;;;;;;6186170;23;20471;-43
2021/07/15 19:38:31;;;;;;;8.70;6.23;;;24.70;99.90;;;;;;6186041;23;20463;-44
2021/07/15 19:40:58;;;;;;;7.00;6.30;;;24.60;99.90;;;;;;6186436;23;20471;-45
2021/07/15 19:43:25;;;;;;;9.13;7.20;;;24.60;99.90;;;;;;6186396;23;20454;-48
2021/07/15 19:45:52;;;;;;;8.53;7.07;;;24.60;99.90;;;;;;6186010;23;20404;-43
2021/07/15 19:48:19;;;;;;;10.33;7.10;;;24.50;99.90;;;;;;6186594;23;20412;-48
2021/07/15 19:50:46;;;;;;;10.63;6.67;;;24.50;99.90;;;;;;6186333;23;20498;-50
2021/07/15 19:53:14;;;;;;;9.67;7.50;;;24.50;99.90;;;;;;6185753;23;20405;-47
2021/07/15 19:55:40;;;;;;;10.47;8.70;;;24.50;99.90;;;;;;6186380;23;20424;-46
2021/07/15 19:58:07;;;;;;;11.30;10.20;;;24.50;99.90;;;;;;6186141;23;20440;-47
2021/07/15 20:00:34;;;;;;;14.90;13.40;;;24.40;99.90;;;;;;6187787;23;20412;-42
2021/07/15 20:03:02;;;;;;;15.77;14.20;;;24.30;99.90;;;;;;6188241;23;20823;-45
2021/07/15 20:05:30;;;;;;;11.23;10.03;;;24.30;99.90;;;;;;6188122;23;20404;-49
2021/07/15 20:07:57;;;;;;;11.43;10.23;;;24.30;99.90;;;;;;6188575;23;20498;-44
2021/07/15 20:10:26;;;;;;;11.53;10.33;;;24.30;99.90;;;;;;6187975;23;20771;-46
2021/07/15 20:12:54;;;;;;;12.50;10.10;;;24.30;99.90;;;;;;6188199;23;20413;-47
2021/07/15 20:15:24;;;;;;;15.00;9.73;;;24.20;99.90;;;;;;6187688;23;20446;-47
2021/07/15 20:17:52;;;;;;;11.93;9.37;;;24.20;99.90;;;;;;6188236;23;20408;-46
2021/07/15 20:20:20;;;;;;;10.90;8.53;;;24.20;99.90;;;;;;6188000;23;20405;-43
2021/07/15 20:22:47;;;;;;;11.60;9.00;;;24.10;99.90;;;;;;6188019;23;20471;-49
2021/07/15 20:25:15;;;;;;;10.30;8.00;;;24.10;99.90;;;;;;6187982;23;20416;-42
2021/07/15 20:27:43;;;;;;;11.27;9.13;;;24.00;99.90;;;;;;6187554;23;20498;-42
2021/07/15 20:30:12;;;;;;;11.93;9.77;;;23.90;99.90;;;;;;6187845;23;20436;-42
2021/07/15 20:32:39;;;;;;;13.27;8.37;;;23.80;99.90;;;;;;6187648;23;20405;-47
2021/07/15 20:35:06;;;;;;;11.00;8.10;;;23.80;99.90;;;;;;6187884;23;20427;-49
2021/07/15 20:37:33;;;;;;;12.10;9.20;;;23.80;99.90;;;;;;6187515;23;20871;-43
2021/07/15 20:40:00;;;;;;;10.50;8.40;;;23.70;99.90;;;;;;6187683;23;20401;-45
2021/07/15 20:42:27;;;;;;;11.23;9.67;;;23.70;99.90;;;;;;6187816;23;20459;-46
2021/07/15 20:44:55;;;;;;;11.70;10.10;;;23.70;99.90;;;;;;6187882;23;20727;-49
2021/07/15 20:47:22;;;;;;;9.83;8.83;;;23.60;99.90;;;;;;6187583;23;20405;-45
2021/07/15 20:49:49;;;;;;;16.00;9.83;;;23.60;99.90;;;;;;6187615;23;20733;-44
2021/07/15 20:52:16;;;;;;;9.77;8.20;;;23.60;99.90;;;;;;6187944;23;20511;-47
2021/07/15 20:54:43;;;;;;;12.10;9.00;;;23.50;99.90;;;;;;6187718;23;20404;-48
2021/07/15 20:57:11;;;;;;;8.90;8.00;;;23.50;99.90;;;;;;6187694;23;20401;-49
2021/07/15 20:59:38;;;;;;;12.47;9.57;;;23.40;99.90;;;;;;6187683;23;20421;-44
2021/07/15 21:02:07;;;;;;;14.70;9.33;;;23.40;99.90;;;;;;6187185;23;20491;-43
2021/07/15 21:04:34;;;;;;;10.70;8.90;;;23.40;99.90;;;;;;6187681;23;20405;-49
2021/07/15 21:07:00;;;;;;;11.70;10.37;;;23.40;99.90;;;;;;6187297;23;20404;-44
2021/07/15 21:09:27;;;;;;;13.37;10.30;;;23.40;99.90;;;;;;6186998;23;20409;-45
2021/07/15 21:11:54;;;;;;;12.63;10.63;;;23.40;99.90;;;;;;6186792;23;20541;-45
2021/07/15 21:14:21;;;;;;;12.30;9.97;;;23.40;99.90;;;;;;6186971;23;20448;-45
2021/07/15 21:16:47;;;;;;;10.70;9.57;;;23.40;99.90;;;;;;6187525;23;20389;-44
2021/07/15 21:19:15;;;;;;;12.57;10.80;;;23.40;99.90;;;;;;6187519;23;20708;-49
2021/07/15 21:21:42;;;;;;;12.33;9.20;;;23.40;99.90;;;;;;6187376;23;20408;-45
2021/07/15 21:24:09;;;;;;;10.20;9.20;;;23.40;99.90;;;;;;6187466;23;20389;-46
2021/07/15 21:26:36;;;;;;;14.17;9.53;;;23.30;99.90;;;;;;6187346;23;20473;-43
2021/07/15 21:29:03;;;;;;;10.90;9.30;;;23.30;99.90;;;;;;6187332;23;20413;-43
2021/07/15 21:31:31;;;;;;;12.93;9.87;;;23.30;99.90;;;;;;6186814;23;20943;-43
2021/07/15 21:33:58;;;;;;;11.53;9.60;;;23.30;99.90;;;;;;6187325;23;20421;-44
2021/07/15 21:36:26;;;;;;;11.27;9.83;;;23.30;99.90;;;;;;6186746;23;20423;-46
2021/07/15 21:38:53;;;;;;;19.60;13.10;;;23.30;99.90;;;;;;6187123;23;20413;-43
2021/07/15 21:41:19;;;;;;;38.03;25.83;;;23.30;99.90;;;;;;6186727;23;20397;-44
2021/07/15 21:43:47;;;;;;;13.20;11.77;;;23.30;99.90;;;;;;6187207;23;20731;-48
2021/07/15 21:46:14;;;;;;;158.33;108.60;;;23.30;99.90;;;;;;6187231;23;20479;-45
2021/07/15 21:48:44;;;;;;;16.07;11.93;;;23.20;99.90;;;;;;6187186;23;20409;-47
2021/07/15 21:51:11;;;;;;;13.13;10.60;;;23.20;99.90;;;;;;6187116;23;20472;-45
2021/07/15 21:53:39;;;;;;;14.33;11.70;;;23.20;99.90;;;;;;6187097;23;20732;-48
2021/07/15 21:56:06;;;;;;;14.47;11.40;;;23.10;99.90;;;;;;6186760;23;20463;-42
2021/07/15 21:58:33;;;;;;;11.37;10.27;;;23.10;99.90;;;;;;6187163;23;20786;-42
2021/07/15 22:01:00;;;;;;;13.43;11.63;;;23.00;99.90;;;;;;6186699;23;20860;-47
2021/07/15 22:03:27;;;;;;;13.73;10.60;;;23.00;99.90;;;;;;6186594;23;20428;-46
2021/07/15 22:05:54;;;;;;;13.63;10.60;;;23.00;99.90;;;;;;6186967;23;20415;-41
2021/07/15 22:08:20;;;;;;;12.07;10.80;;;23.00;99.90;;;;;;6186534;23;20420;-43
2021/07/15 22:10:49;;;;;;;12.50;11.20;;;23.00;99.90;;;;;;6186904;23;20495;-46
2021/07/15 22:13:15;;;;;;;13.07;11.77;;;22.90;99.90;;;;;;6186726;23;20397;-42
2021/07/15 22:15:42;;;;;;;11.60;10.40;;;22.90;99.90;;;;;;6186489;23;20445;-44
2021/07/15 22:18:11;;;;;;;14.03;11.07;;;22.90;99.90;;;;;;6186742;23;20892;-45
2021/07/15 22:20:39;;;;;;;15.30;10.57;;;22.90;99.90;;;;;;6186563;23;20401;-45
2021/07/15 22:23:11;;;;;;;12.63;10.17;;;22.90;99.90;;;;;;6186525;23;20862;-46
2021/07/15 22:25:37;;;;;;;12.70;10.30;;;22.90;99.90;;;;;;6187049;23;20401;-47
2021/07/15 22:28:08;;;;;;;12.30;11.00;;;22.80;99.90;;;;;;6186595;23;20746;-44
2021/07/15 22:30:36;;;;;;;12.03;10.13;;;22.80;99.90;;;;;;6186479;23;20464;-46
2021/07/15 22:33:06;;;;;;;12.03;10.73;;;22.80;99.90;;;;;;6186833;23;20715;-43
2021/07/15 22:35:38;;;;;;;11.63;10.40;;;22.80;99.90;;;;;;6186851;23;20891;-42
2021/07/15 22:38:04;;;;;;;13.10;11.20;;;22.80;99.90;;;;;;6186607;23;20390;-44
2021/07/15 22:40:31;;;;;;;14.50;10.17;;;22.80;99.90;;;;;;6186754;23;20405;-42
2021/07/15 22:42:58;;;;;;;11.63;10.10;;;22.70;99.90;;;;;;6186465;23;20725;-47
2021/07/15 22:45:26;;;;;;;14.90;12.10;;;22.70;99.90;;;;;;6186906;23;20409;-46
2021/07/15 22:47:53;;;;;;;11.93;10.63;;;22.70;99.90;;;;;;6186750;23;20405;-51
2021/07/15 22:50:20;;;;;;;13.07;10.17;;;22.70;99.90;;;;;;6186198;23;20923;-46
2021/07/15 22:52:47;;;;;;;12.53;10.37;;;22.60;99.90;;;;;;6186729;23;20761;-45
2021/07/15 22:55:17;;;;;;;16.07;11.30;;;22.60;99.90;;;;;;6186716;23;20413;-45
2021/07/15 22:57:43;;;;;;;12.20;10.83;;;22.60;99.90;;;;;;6186693;23;20467;-45
2021/07/15 23:00:14;;;;;;;11.77;10.57;;;22.60;99.90;;;;;;6186824;23;20474;-43
2021/07/15 23:02:42;;;;;;;13.60;10.00;;;22.60;99.90;;;;;;6187133;23;20927;-45
2021/07/15 23:05:11;;;;;;;19.40;11.40;;;22.50;99.90;;;;;;6186669;23;20404;-46
2021/07/15 23:07:40;;;;;;;11.73;10.13;;;22.50;99.90;;;;;;6186454;23;20397;-46
2021/07/15 23:10:07;;;;;;;11.60;10.07;;;22.50;99.90;;;;;;6186558;23;20440;-41
2021/07/15 23:12:34;;;;;;;12.10;10.70;;;22.50;99.90;;;;;;6186197;23;20408;-48
2021/07/15 23:15:01;;;;;;;11.40;10.17;;;22.50;99.90;;;;;;6185876;23;20498;-46
2021/07/15 23:17:27;;;;;;;12.27;10.47;;;22.50;99.90;;;;;;6185391;23;20404;-49
2021/07/15 23:19:55;;;;;;;14.20;11.20;;;22.50;99.90;;;;;;6185478;23;20405;-43
2021/07/15 23:22:22;;;;;;;12.10;10.90;;;22.50;99.90;;;;;;6185297;23;20409;-44
2021/07/15 23:24:49;;;;;;;14.13;11.07;;;22.50;99.90;;;;;;6185302;23;20476;-51
2021/07/15 23:27:16;;;;;;;14.13;10.20;;;22.50;99.90;;;;;;6184858;23;20405;-45
2021/07/15 23:29:42;;;;;;;15.80;10.73;;;22.40;99.90;;;;;;6185483;23;20408;-51
2021/07/15 23:32:09;;;;;;;14.07;11.73;;;22.40;99.90;;;;;;6185123;23;20449;-42
2021/07/15 23:34:36;;;;;;;11.53;10.10;;;22.40;99.90;;;;;;6186037;23;20413;-48
2021/07/15 23:37:04;;;;;;;12.47;10.30;;;22.40;99.90;;;;;;6186148;23;21064;-45
2021/07/15 23:39:31;;;;;;;14.87;11.87;;;22.40;99.90;;;;;;6186160;23;20468;-44
2021/07/15 23:41:58;;;;;;;13.53;10.93;;;22.30;99.90;;;;;;6186789;23;20456;-51
2021/07/15 23:44:24;;;;;;;15.60;9.57;;;22.30;99.90;;;;;;6186492;23;20412;-44
2021/07/15 23:46:51;;;;;;;11.23;10.10;;;22.30;99.90;;;;;;6186430;23;20816;-47
2021/07/15 23:49:18;;;;;;;14.60;10.77;;;22.30;99.90;;;;;;6186054;23;20768;-44
2021/07/15 23:51:44;;;;;;;12.40;10.03;;;22.30;99.90;;;;;;6186297;23;20494;-42
2021/07/15 23:54:12;;;;;;;11.07;9.97;;;22.30;99.90;;;;;;6186462;23;20412;-47
2021/07/15 23:56:39;;;;;;;13.53;10.23;;;22.20;99.90;;;;;;6186081;23;20471;-44
2021/07/15 23:59:06;;;;;;;11.10;10.00;;;22.20;99.90;;;;;;6186039;23;20902;-45
